Terminal Aerodrome Forecast
Issued by NWS El Paso, TX

Current Version | Previous Version | Text Only | Print | Product List | Glossary On
Versions: 1 2 3 4 5 6 7 8 9 10 11 12 13 14 15 16 17
000
FTUS44 KEPZ 231700
TAFELP
TAF
KELP 231720Z 2318/2418 VRB03KT P6SM FEW035 SCT100
     FM232000 14007KT P6SM SCT040 BKN120
     FM240000 13008KT P6SM VCTS SCT050CB SCT100 BKN200
     FM240600 08005KT P6SM FEW080 SCT120=

USA.gov is the U.S. government's official web portal to all federal, state and local government web resources and services.